sensor_id;sensor_type;location;lat;lon;timestamp;P1;durP1;ratioP1;P2;durP2;ratioP2
64791;SDS011;51226;47.504;19.074;2022-12-05T00:00:31;9.80;;;6.90;;
64791;SDS011;51226;47.504;19.074;2022-12-05T00:03:42;9.35;;;7.10;;
64791;SDS011;51226;47.504;19.074;2022-12-05T00:06:45;8.10;;;6.22;;
64791;SDS011;51226;47.504;19.074;2022-12-05T00:09:48;8.25;;;5.80;;
64791;SDS011;51226;47.504;19.074;2022-12-05T00:12:52;8.23;;;6.12;;
64791;SDS011;51226;47.504;19.074;2022-12-05T00:15:55;7.68;;;6.05;;
64791;SDS011;51226;47.504;19.074;2022-12-05T00:18:58;7.80;;;5.45;;
64791;SDS011;51226;47.504;19.074;2022-12-05T00:22:02;8.80;;;5.97;;
64791;SDS011;51226;47.504;19.074;2022-12-05T00:25:05;6.87;;;5.78;;
64791;SDS011;51226;47.504;19.074;2022-12-05T00:28:11;8.07;;;6.62;;
64791;SDS011;51226;47.504;19.074;2022-12-05T00:31:16;9.13;;;6.12;;
64791;SDS011;51226;47.504;19.074;2022-12-05T00:34:21;10.00;;;6.90;;
64791;SDS011;51226;47.504;19.074;2022-12-05T00:37:25;8.50;;;6.03;;
64791;SDS011;51226;47.504;19.074;2022-12-05T00:40:27;6.22;;;5.62;;
64791;SDS011;51226;47.504;19.074;2022-12-05T00:43:30;8.93;;;7.43;;
64791;SDS011;51226;47.504;19.074;2022-12-05T00:46:34;8.52;;;6.40;;
64791;SDS011;51226;47.504;19.074;2022-12-05T00:49:38;8.40;;;6.37;;
64791;SDS011;51226;47.504;19.074;2022-12-05T00:52:40;10.73;;;6.95;;
64791;SDS011;51226;47.504;19.074;2022-12-05T00:55:43;9.10;;;6.93;;
64791;SDS011;51226;47.504;19.074;2022-12-05T00:58:46;10.40;;;7.15;;
64791;SDS011;51226;47.504;19.074;2022-12-05T01:01:50;7.82;;;5.65;;
64791;SDS011;51226;47.504;19.074;2022-12-05T01:04:53;7.62;;;6.22;;
64791;SDS011;51226;47.504;19.074;2022-12-05T01:07:56;8.50;;;6.68;;
64791;SDS011;51226;47.504;19.074;2022-12-05T01:10:59;7.50;;;6.20;;
64791;SDS011;51226;47.504;19.074;2022-12-05T01:14:02;8.18;;;6.75;;
64791;SDS011;51226;47.504;19.074;2022-12-05T01:17:05;9.70;;;7.32;;
64791;SDS011;51226;47.504;19.074;2022-12-05T01:20:08;9.32;;;6.85;;
64791;SDS011;51226;47.504;19.074;2022-12-05T01:23:11;12.37;;;8.55;;
64791;SDS011;51226;47.504;19.074;2022-12-05T01:26:15;11.52;;;9.27;;
64791;SDS011;51226;47.504;19.074;2022-12-05T01:29:20;10.10;;;7.72;;
64791;SDS011;51226;47.504;19.074;2022-12-05T01:32:24;9.43;;;7.53;;
64791;SDS011;51226;47.504;19.074;2022-12-05T01:35:29;8.95;;;6.75;;
64791;SDS011;51226;47.504;19.074;2022-12-05T01:38:33;7.75;;;5.87;;
64791;SDS011;51226;47.504;19.074;2022-12-05T01:41:40;8.97;;;6.67;;
64791;SDS011;51226;47.504;19.074;2022-12-05T01:47:51;7.47;;;6.20;;
64791;SDS011;51226;47.504;19.074;2022-12-05T01:50:54;8.45;;;5.93;;
64791;SDS011;51226;47.504;19.074;2022-12-05T01:53:57;8.43;;;5.87;;
64791;SDS011;51226;47.504;19.074;2022-12-05T02:00:08;7.20;;;5.75;;
64791;SDS011;51226;47.504;19.074;2022-12-05T02:03:18;9.38;;;6.30;;
64791;SDS011;51226;47.504;19.074;2022-12-05T02:06:22;9.10;;;6.50;;
64791;SDS011;51226;47.504;19.074;2022-12-05T02:09:26;8.52;;;6.57;;
64791;SDS011;51226;47.504;19.074;2022-12-05T02:12:29;8.70;;;6.43;;
64791;SDS011;51226;47.504;19.074;2022-12-05T02:15:45;10.90;;;7.60;;
64791;SDS011;51226;47.504;19.074;2022-12-05T02:33:17;11.70;;;7.57;;
64791;SDS011;51226;47.504;19.074;2022-12-05T02:36:27;10.32;;;7.28;;
64791;SDS011;51226;47.504;19.074;2022-12-05T02:43:15;9.50;;;6.80;;
64791;SDS011;51226;47.504;19.074;2022-12-05T02:46:22;10.77;;;6.90;;
64791;SDS011;51226;47.504;19.074;2022-12-05T02:49:29;9.43;;;6.22;;
64791;SDS011;51226;47.504;19.074;2022-12-05T02:52:34;14.40;;;7.82;;
64791;SDS011;51226;47.504;19.074;2022-12-05T02:55:39;9.15;;;6.80;;
64791;SDS011;51226;47.504;19.074;2022-12-05T02:58:47;10.10;;;7.37;;
64791;SDS011;51226;47.504;19.074;2022-12-05T03:01:55;8.48;;;6.55;;
64791;SDS011;51226;47.504;19.074;2022-12-05T03:05:03;9.93;;;7.37;;
64791;SDS011;51226;47.504;19.074;2022-12-05T03:08:22;8.10;;;6.83;;
64791;SDS011;51226;47.504;19.074;2022-12-05T03:11:30;10.50;;;7.50;;
64791;SDS011;51226;47.504;19.074;2022-12-05T03:14:44;9.10;;;7.57;;
64791;SDS011;51226;47.504;19.074;2022-12-05T03:17:55;10.05;;;6.97;;
64791;SDS011;51226;47.504;19.074;2022-12-05T03:21:19;10.35;;;7.37;;
64791;SDS011;51226;47.504;19.074;2022-12-05T03:24:29;9.70;;;7.25;;
64791;SDS011;51226;47.504;19.074;2022-12-05T03:30:46;10.95;;;7.25;;
64791;SDS011;51226;47.504;19.074;2022-12-05T03:33:55;11.50;;;8.15;;
64791;SDS011;51226;47.504;19.074;2022-12-05T03:37:01;11.32;;;7.65;;
64791;SDS011;51226;47.504;19.074;2022-12-05T03:40:30;12.35;;;8.27;;
64791;SDS011;51226;47.504;19.074;2022-12-05T03:43:43;9.93;;;7.65;;
64791;SDS011;51226;47.504;19.074;2022-12-05T03:50:02;10.93;;;8.32;;
64791;SDS011;51226;47.504;19.074;2022-12-05T03:53:23;11.15;;;7.70;;
64791;SDS011;51226;47.504;19.074;2022-12-05T03:56:33;12.95;;;7.85;;
64791;SDS011;51226;47.504;19.074;2022-12-05T03:59:44;9.43;;;7.50;;
64791;SDS011;51226;47.504;19.074;2022-12-05T04:02:52;11.27;;;7.20;;
64791;SDS011;51226;47.504;19.074;2022-12-05T04:06:00;10.25;;;7.78;;
64791;SDS011;51226;47.504;19.074;2022-12-05T04:09:09;10.23;;;7.53;;
64791;SDS011;51226;47.504;19.074;2022-12-05T04:12:23;10.77;;;7.40;;
64791;SDS011;51226;47.504;19.074;2022-12-05T04:15:29;11.40;;;8.63;;
64791;SDS011;51226;47.504;19.074;2022-12-05T04:18:58;12.13;;;8.60;;
64791;SDS011;51226;47.504;19.074;2022-12-05T04:22:07;12.63;;;8.13;;
64791;SDS011;51226;47.504;19.074;2022-12-05T04:25:11;9.52;;;7.40;;
64791;SDS011;51226;47.504;19.074;2022-12-05T04:28:38;12.77;;;8.43;;
64791;SDS011;51226;47.504;19.074;2022-12-05T04:31:51;9.93;;;7.55;;
64791;SDS011;51226;47.504;19.074;2022-12-05T04:35:00;10.80;;;8.57;;
64791;SDS011;51226;47.504;19.074;2022-12-05T04:38:10;9.52;;;7.57;;
64791;SDS011;51226;47.504;19.074;2022-12-05T04:41:22;15.35;;;9.18;;
64791;SDS011;51226;47.504;19.074;2022-12-05T04:44:29;10.82;;;8.15;;
64791;SDS011;51226;47.504;19.074;2022-12-05T04:47:38;10.45;;;7.60;;
64791;SDS011;51226;47.504;19.074;2022-12-05T04:50:45;10.85;;;7.12;;
64791;SDS011;51226;47.504;19.074;2022-12-05T04:53:55;10.15;;;7.95;;
64791;SDS011;51226;47.504;19.074;2022-12-05T04:57:09;12.23;;;8.88;;
64791;SDS011;51226;47.504;19.074;2022-12-05T05:00:16;9.93;;;8.38;;
64791;SDS011;51226;47.504;19.074;2022-12-05T05:03:27;12.00;;;10.00;;
64791;SDS011;51226;47.504;19.074;2022-12-05T05:06:44;11.50;;;8.65;;
64791;SDS011;51226;47.504;19.074;2022-12-05T05:09:47;21.48;;;13.88;;
64791;SDS011;51226;47.504;19.074;2022-12-05T05:12:50;14.00;;;9.00;;
64791;SDS011;51226;47.504;19.074;2022-12-05T05:15:53;11.63;;;8.13;;
64791;SDS011;51226;47.504;19.074;2022-12-05T05:18:56;12.83;;;9.50;;
64791;SDS011;51226;47.504;19.074;2022-12-05T05:21:59;13.60;;;8.88;;
64791;SDS011;51226;47.504;19.074;2022-12-05T05:25:01;11.93;;;8.27;;
64791;SDS011;51226;47.504;19.074;2022-12-05T05:28:05;10.43;;;8.10;;
64791;SDS011;51226;47.504;19.074;2022-12-05T05:31:07;10.75;;;7.70;;
64791;SDS011;51226;47.504;19.074;2022-12-05T05:34:11;10.48;;;7.60;;
64791;SDS011;51226;47.504;19.074;2022-12-05T05:37:13;9.43;;;8.20;;
64791;SDS011;51226;47.504;19.074;2022-12-05T05:40:16;10.88;;;7.82;;
64791;SDS011;51226;47.504;19.074;2022-12-05T05:43:20;11.18;;;8.82;;
64791;SDS011;51226;47.504;19.074;2022-12-05T05:46:25;11.65;;;8.15;;
64791;SDS011;51226;47.504;19.074;2022-12-05T05:49:29;10.27;;;8.30;;
64791;SDS011;51226;47.504;19.074;2022-12-05T05:52:33;13.05;;;8.45;;
64791;SDS011;51226;47.504;19.074;2022-12-05T05:55:40;12.55;;;9.20;;
64791;SDS011;51226;47.504;19.074;2022-12-05T05:58:44;12.48;;;9.18;;
64791;SDS011;51226;47.504;19.074;2022-12-05T06:01:46;11.27;;;8.82;;
64791;SDS011;51226;47.504;19.074;2022-12-05T06:04:49;10.60;;;8.30;;
64791;SDS011;51226;47.504;19.074;2022-12-05T06:07:52;10.05;;;8.75;;
64791;SDS011;51226;47.504;19.074;2022-12-05T06:10:55;13.40;;;10.02;;
64791;SDS011;51226;47.504;19.074;2022-12-05T06:13:58;13.30;;;9.77;;
64791;SDS011;51226;47.504;19.074;2022-12-05T06:17:05;10.52;;;9.10;;
64791;SDS011;51226;47.504;19.074;2022-12-05T06:20:07;12.17;;;10.27;;
64791;SDS011;51226;47.504;19.074;2022-12-05T06:23:11;11.77;;;9.10;;
64791;SDS011;51226;47.504;19.074;2022-12-05T06:26:15;11.20;;;8.97;;
64791;SDS011;51226;47.504;19.074;2022-12-05T06:29:19;13.57;;;9.43;;
64791;SDS011;51226;47.504;19.074;2022-12-05T06:32:27;11.55;;;9.73;;
64791;SDS011;51226;47.504;19.074;2022-12-05T06:35:31;13.95;;;10.18;;
64791;SDS011;51226;47.504;19.074;2022-12-05T06:38:33;14.00;;;9.95;;
64791;SDS011;51226;47.504;19.074;2022-12-05T06:41:43;11.20;;;9.32;;
64791;SDS011;51226;47.504;19.074;2022-12-05T06:44:45;13.05;;;9.48;;
64791;SDS011;51226;47.504;19.074;2022-12-05T06:47:49;12.00;;;10.00;;
64791;SDS011;51226;47.504;19.074;2022-12-05T06:50:53;10.85;;;9.32;;
64791;SDS011;51226;47.504;19.074;2022-12-05T06:53:56;11.57;;;9.48;;
64791;SDS011;51226;47.504;19.074;2022-12-05T06:56:59;10.82;;;9.50;;
64791;SDS011;51226;47.504;19.074;2022-12-05T07:00:02;12.77;;;10.88;;
64791;SDS011;51226;47.504;19.074;2022-12-05T07:03:24;11.12;;;9.95;;
64791;SDS011;51226;47.504;19.074;2022-12-05T07:06:27;12.00;;;10.75;;
64791;SDS011;51226;47.504;19.074;2022-12-05T07:09:30;11.75;;;9.88;;
64791;SDS011;51226;47.504;19.074;2022-12-05T07:12:50;12.50;;;9.98;;
64791;SDS011;51226;47.504;19.074;2022-12-05T07:15:52;12.27;;;9.10;;
64791;SDS011;51226;47.504;19.074;2022-12-05T07:18:55;11.52;;;10.10;;
64791;SDS011;51226;47.504;19.074;2022-12-05T07:21:58;9.73;;;8.75;;
64791;SDS011;51226;47.504;19.074;2022-12-05T07:25:01;10.45;;;9.35;;
64791;SDS011;51226;47.504;19.074;2022-12-05T07:34:12;11.68;;;9.80;;
64791;SDS011;51226;47.504;19.074;2022-12-05T07:40:18;10.13;;;9.05;;
64791;SDS011;51226;47.504;19.074;2022-12-05T07:43:21;14.85;;;11.20;;
64791;SDS011;51226;47.504;19.074;2022-12-05T07:46:25;12.23;;;9.95;;
64791;SDS011;51226;47.504;19.074;2022-12-05T07:49:29;12.60;;;9.75;;
64791;SDS011;51226;47.504;19.074;2022-12-05T07:52:32;13.10;;;9.88;;
64791;SDS011;51226;47.504;19.074;2022-12-05T07:55:36;13.75;;;10.48;;
64791;SDS011;51226;47.504;19.074;2022-12-05T07:58:39;11.30;;;9.25;;
64791;SDS011;51226;47.504;19.074;2022-12-05T08:01:42;13.43;;;10.43;;
64791;SDS011;51226;47.504;19.074;2022-12-05T08:04:45;13.50;;;10.38;;
64791;SDS011;51226;47.504;19.074;2022-12-05T08:07:48;11.95;;;9.90;;
64791;SDS011;51226;47.504;19.074;2022-12-05T08:10:51;10.55;;;9.50;;
64791;SDS011;51226;47.504;19.074;2022-12-05T08:13:54;10.65;;;9.05;;
64791;SDS011;51226;47.504;19.074;2022-12-05T08:16:57;11.85;;;9.50;;
64791;SDS011;51226;47.504;19.074;2022-12-05T08:20:00;10.30;;;9.23;;
64791;SDS011;51226;47.504;19.074;2022-12-05T08:23:04;11.07;;;9.95;;
64791;SDS011;51226;47.504;19.074;2022-12-05T08:26:08;11.88;;;9.43;;
64791;SDS011;51226;47.504;19.074;2022-12-05T08:29:13;13.73;;;9.75;;
64791;SDS011;51226;47.504;19.074;2022-12-05T08:32:17;11.55;;;9.70;;
64791;SDS011;51226;47.504;19.074;2022-12-05T08:35:20;13.90;;;10.52;;
64791;SDS011;51226;47.504;19.074;2022-12-05T08:38:23;13.20;;;10.13;;
64791;SDS011;51226;47.504;19.074;2022-12-05T08:41:26;11.45;;;9.88;;
64791;SDS011;51226;47.504;19.074;2022-12-05T08:44:32;11.63;;;9.10;;
64791;SDS011;51226;47.504;19.074;2022-12-05T08:47:35;12.93;;;10.10;;
64791;SDS011;51226;47.504;19.074;2022-12-05T08:50:38;13.00;;;9.60;;
64791;SDS011;51226;47.504;19.074;2022-12-05T08:53:41;11.60;;;9.73;;
64791;SDS011;51226;47.504;19.074;2022-12-05T08:56:48;12.20;;;10.40;;
64791;SDS011;51226;47.504;19.074;2022-12-05T08:59:53;11.98;;;10.35;;
64791;SDS011;51226;47.504;19.074;2022-12-05T09:02:56;11.82;;;10.32;;
64791;SDS011;51226;47.504;19.074;2022-12-05T09:06:06;13.82;;;10.27;;
64791;SDS011;51226;47.504;19.074;2022-12-05T09:09:12;13.77;;;10.93;;
64791;SDS011;51226;47.504;19.074;2022-12-05T09:12:15;12.48;;;10.45;;
64791;SDS011;51226;47.504;19.074;2022-12-05T09:15:18;11.45;;;9.93;;
64791;SDS011;51226;47.504;19.074;2022-12-05T09:18:21;11.35;;;9.52;;
64791;SDS011;51226;47.504;19.074;2022-12-05T09:21:25;10.98;;;8.90;;
64791;SDS011;51226;47.504;19.074;2022-12-05T09:24:30;12.40;;;11.02;;
64791;SDS011;51226;47.504;19.074;2022-12-05T09:27:33;13.07;;;10.88;;
64791;SDS011;51226;47.504;19.074;2022-12-05T09:30:36;13.62;;;10.38;;
64791;SDS011;51226;47.504;19.074;2022-12-05T09:33:39;11.32;;;10.15;;
64791;SDS011;51226;47.504;19.074;2022-12-05T09:36:42;11.80;;;10.60;;
64791;SDS011;51226;47.504;19.074;2022-12-05T09:39:45;11.27;;;10.07;;
64791;SDS011;51226;47.504;19.074;2022-12-05T09:42:57;13.75;;;10.25;;
64791;SDS011;51226;47.504;19.074;2022-12-05T09:46:16;12.32;;;11.10;;
64791;SDS011;51226;47.504;19.074;2022-12-05T09:49:26;12.37;;;11.07;;
64791;SDS011;51226;47.504;19.074;2022-12-05T09:52:34;12.07;;;10.82;;
64791;SDS011;51226;47.504;19.074;2022-12-05T09:55:54;13.65;;;10.82;;
64791;SDS011;51226;47.504;19.074;2022-12-05T09:59:16;14.40;;;11.82;;
64791;SDS011;51226;47.504;19.074;2022-12-05T10:02:27;13.32;;;11.12;;
64791;SDS011;51226;47.504;19.074;2022-12-05T10:12:44;11.85;;;10.63;;
64791;SDS011;51226;47.504;19.074;2022-12-05T10:16:03;14.50;;;11.57;;
64791;SDS011;51226;47.504;19.074;2022-12-05T10:19:13;12.13;;;10.85;;
64791;SDS011;51226;47.504;19.074;2022-12-05T10:22:24;12.20;;;10.98;;
64791;SDS011;51226;47.504;19.074;2022-12-05T10:25:32;13.18;;;11.70;;
64791;SDS011;51226;47.504;19.074;2022-12-05T10:28:40;12.52;;;11.27;;
64791;SDS011;51226;47.504;19.074;2022-12-05T10:31:55;14.18;;;12.10;;
64791;SDS011;51226;47.504;19.074;2022-12-05T10:35:22;12.07;;;10.90;;
64791;SDS011;51226;47.504;19.074;2022-12-05T10:38:34;13.43;;;11.65;;
64791;SDS011;51226;47.504;19.074;2022-12-05T10:41:37;13.23;;;11.93;;
64791;SDS011;51226;47.504;19.074;2022-12-05T10:44:40;16.12;;;12.25;;
64791;SDS011;51226;47.504;19.074;2022-12-05T10:47:43;13.65;;;12.30;;
64791;SDS011;51226;47.504;19.074;2022-12-05T10:50:48;14.13;;;12.18;;
64791;SDS011;51226;47.504;19.074;2022-12-05T10:53:53;13.88;;;12.48;;
64791;SDS011;51226;47.504;19.074;2022-12-05T11:00:08;14.27;;;12.77;;
64791;SDS011;51226;47.504;19.074;2022-12-05T11:07:01;13.55;;;12.15;;
64791;SDS011;51226;47.504;19.074;2022-12-05T11:10:29;11.80;;;10.70;;
64791;SDS011;51226;47.504;19.074;2022-12-05T11:13:34;12.85;;;11.68;;
64791;SDS011;51226;47.504;19.074;2022-12-05T11:16:37;14.50;;;13.10;;
64791;SDS011;51226;47.504;19.074;2022-12-05T11:19:40;13.55;;;12.25;;
64791;SDS011;51226;47.504;19.074;2022-12-05T11:22:44;14.55;;;13.10;;
64791;SDS011;51226;47.504;19.074;2022-12-05T11:25:50;13.30;;;12.00;;
64791;SDS011;51226;47.504;19.074;2022-12-05T11:28:54;12.85;;;11.55;;
64791;SDS011;51226;47.504;19.074;2022-12-05T11:31:56;13.23;;;11.90;;
64791;SDS011;51226;47.504;19.074;2022-12-05T11:35:07;14.50;;;13.10;;
64791;SDS011;51226;47.504;19.074;2022-12-05T11:38:13;14.43;;;12.93;;
64791;SDS011;51226;47.504;19.074;2022-12-05T11:45:14;13.85;;;12.10;;
64791;SDS011;51226;47.504;19.074;2022-12-05T11:48:32;14.15;;;12.85;;
64791;SDS011;51226;47.504;19.074;2022-12-05T11:55:13;13.57;;;12.27;;
64791;SDS011;51226;47.504;19.074;2022-12-05T12:22:51;18.85;;;17.02;;
64791;SDS011;51226;47.504;19.074;2022-12-05T12:26:02;19.45;;;17.40;;
64791;SDS011;51226;47.504;19.074;2022-12-05T12:42:28;20.60;;;17.62;;
64791;SDS011;51226;47.504;19.074;2022-12-05T13:03:27;25.02;;;21.05;;
64791;SDS011;51226;47.504;19.074;2022-12-05T13:06:48;22.80;;;20.35;;
64791;SDS011;51226;47.504;19.074;2022-12-05T13:10:02;30.02;;;22.25;;
64791;SDS011;51226;47.504;19.074;2022-12-05T13:13:21;24.20;;;21.37;;
64791;SDS011;51226;47.504;19.074;2022-12-05T13:16:30;24.30;;;19.98;;
64791;SDS011;51226;47.504;19.074;2022-12-05T13:19:44;19.25;;;17.25;;
64791;SDS011;51226;47.504;19.074;2022-12-05T13:22:50;21.80;;;18.40;;
64791;SDS011;51226;47.504;19.074;2022-12-05T13:25:56;23.30;;;18.02;;
64791;SDS011;51226;47.504;19.074;2022-12-05T13:29:02;19.48;;;17.37;;
64791;SDS011;51226;47.504;19.074;2022-12-05T13:32:06;19.37;;;16.92;;
64791;SDS011;51226;47.504;19.074;2022-12-05T13:35:34;18.55;;;16.62;;
64791;SDS011;51226;47.504;19.074;2022-12-05T13:39:16;21.12;;;18.37;;
64791;SDS011;51226;47.504;19.074;2022-12-05T13:42:40;20.12;;;16.40;;
64791;SDS011;51226;47.504;19.074;2022-12-05T13:45:54;21.85;;;18.62;;
64791;SDS011;51226;47.504;19.074;2022-12-05T13:49:01;22.85;;;18.00;;
64791;SDS011;51226;47.504;19.074;2022-12-05T13:52:14;18.48;;;16.48;;
64791;SDS011;51226;47.504;19.074;2022-12-05T13:55:32;22.23;;;17.85;;
64791;SDS011;51226;47.504;19.074;2022-12-05T13:58:51;18.62;;;16.55;;
64791;SDS011;51226;47.504;19.074;2022-12-05T14:01:56;18.80;;;16.90;;
64791;SDS011;51226;47.504;19.074;2022-12-05T14:04:59;20.35;;;17.67;;
64791;SDS011;51226;47.504;19.074;2022-12-05T14:08:48;18.23;;;16.20;;
64791;SDS011;51226;47.504;19.074;2022-12-05T14:11:33;18.30;;;16.45;;
64791;SDS011;51226;47.504;19.074;2022-12-05T14:24:40;19.10;;;17.17;;
64791;SDS011;51226;47.504;19.074;2022-12-05T14:27:55;18.80;;;16.90;;
64791;SDS011;51226;47.504;19.074;2022-12-05T14:37:25;18.42;;;16.50;;
64791;SDS011;51226;47.504;19.074;2022-12-05T14:40:37;18.27;;;14.73;;
64791;SDS011;51226;47.504;19.074;2022-12-05T14:43:42;18.70;;;16.10;;
64791;SDS011;51226;47.504;19.074;2022-12-05T14:46:45;25.33;;;20.17;;
64791;SDS011;51226;47.504;19.074;2022-12-05T14:57:00;18.27;;;15.65;;
64791;SDS011;51226;47.504;19.074;2022-12-05T15:00:15;20.17;;;17.87;;
64791;SDS011;51226;47.504;19.074;2022-12-05T15:03:24;18.60;;;16.48;;
64791;SDS011;51226;47.504;19.074;2022-12-05T15:13:20;24.65;;;19.92;;
64791;SDS011;51226;47.504;19.074;2022-12-05T15:16:26;23.42;;;19.45;;
64791;SDS011;51226;47.504;19.074;2022-12-05T15:19:42;20.25;;;17.30;;
64791;SDS011;51226;47.504;19.074;2022-12-05T15:22:50;21.05;;;16.33;;
64791;SDS011;51226;47.504;19.074;2022-12-05T15:25:53;22.13;;;16.60;;
64791;SDS011;51226;47.504;19.074;2022-12-05T15:29:04;19.87;;;16.60;;
64791;SDS011;51226;47.504;19.074;2022-12-05T15:35:11;20.20;;;16.95;;
64791;SDS011;51226;47.504;19.074;2022-12-05T15:38:24;19.45;;;16.67;;
64791;SDS011;51226;47.504;19.074;2022-12-05T15:41:31;18.05;;;15.75;;
64791;SDS011;51226;47.504;19.074;2022-12-05T15:44:34;17.62;;;14.38;;
64791;SDS011;51226;47.504;19.074;2022-12-05T15:51:01;17.37;;;15.52;;
64791;SDS011;51226;47.504;19.074;2022-12-05T15:54:06;17.15;;;14.85;;
64791;SDS011;51226;47.504;19.074;2022-12-05T15:57:17;20.60;;;15.27;;
64791;SDS011;51226;47.504;19.074;2022-12-05T16:00:28;22.60;;;16.20;;
64791;SDS011;51226;47.504;19.074;2022-12-05T16:03:38;18.48;;;15.63;;
64791;SDS011;51226;47.504;19.074;2022-12-05T16:06:50;18.45;;;14.95;;
64791;SDS011;51226;47.504;19.074;2022-12-05T16:09:59;19.17;;;14.80;;
64791;SDS011;51226;47.504;19.074;2022-12-05T16:13:04;16.37;;;14.63;;
64791;SDS011;51226;47.504;19.074;2022-12-05T16:16:16;16.02;;;14.23;;
64791;SDS011;51226;47.504;19.074;2022-12-05T16:19:22;16.42;;;14.73;;
64791;SDS011;51226;47.504;19.074;2022-12-05T16:22:26;16.23;;;14.52;;
64791;SDS011;51226;47.504;19.074;2022-12-05T16:25:33;17.87;;;14.43;;
64791;SDS011;51226;47.504;19.074;2022-12-05T16:28:38;17.30;;;14.00;;
64791;SDS011;51226;47.504;19.074;2022-12-05T16:31:41;16.10;;;13.45;;
64791;SDS011;51226;47.504;19.074;2022-12-05T16:34:46;17.95;;;13.32;;
64791;SDS011;51226;47.504;19.074;2022-12-05T16:37:48;15.93;;;13.40;;
64791;SDS011;51226;47.504;19.074;2022-12-05T16:40:53;18.17;;;14.27;;
64791;SDS011;51226;47.504;19.074;2022-12-05T16:43:58;19.45;;;14.45;;
64791;SDS011;51226;47.504;19.074;2022-12-05T16:47:01;17.10;;;13.50;;
64791;SDS011;51226;47.504;19.074;2022-12-05T16:50:24;16.13;;;13.37;;
64791;SDS011;51226;47.504;19.074;2022-12-05T16:53:28;15.38;;;13.00;;
64791;SDS011;51226;47.504;19.074;2022-12-05T16:56:33;18.02;;;12.40;;
64791;SDS011;51226;47.504;19.074;2022-12-05T16:59:37;14.02;;;12.35;;
64791;SDS011;51226;47.504;19.074;2022-12-05T17:02:40;15.65;;;12.10;;
64791;SDS011;51226;47.504;19.074;2022-12-05T17:05:45;16.23;;;13.10;;
64791;SDS011;51226;47.504;19.074;2022-12-05T17:08:48;13.82;;;11.82;;
64791;SDS011;51226;47.504;19.074;2022-12-05T17:11:52;16.62;;;11.15;;
64791;SDS011;51226;47.504;19.074;2022-12-05T17:15:02;16.60;;;11.98;;
64791;SDS011;51226;47.504;19.074;2022-12-05T17:21:20;16.37;;;12.45;;
64791;SDS011;51226;47.504;19.074;2022-12-05T17:24:26;15.10;;;12.27;;
64791;SDS011;51226;47.504;19.074;2022-12-05T17:27:29;14.87;;;12.13;;
64791;SDS011;51226;47.504;19.074;2022-12-05T17:30:33;14.63;;;11.85;;
64791;SDS011;51226;47.504;19.074;2022-12-05T17:33:35;12.70;;;10.95;;
64791;SDS011;51226;47.504;19.074;2022-12-05T17:36:38;16.30;;;12.27;;
64791;SDS011;51226;47.504;19.074;2022-12-05T17:39:41;15.33;;;11.67;;
64791;SDS011;51226;47.504;19.074;2022-12-05T17:42:44;14.57;;;10.93;;
64791;SDS011;51226;47.504;19.074;2022-12-05T17:45:48;16.85;;;12.65;;
64791;SDS011;51226;47.504;19.074;2022-12-05T17:48:52;16.75;;;12.00;;
64791;SDS011;51226;47.504;19.074;2022-12-05T17:51:54;19.45;;;12.75;;
64791;SDS011;51226;47.504;19.074;2022-12-05T17:55:24;16.70;;;12.90;;
64791;SDS011;51226;47.504;19.074;2022-12-05T17:58:28;16.15;;;12.40;;
64791;SDS011;51226;47.504;19.074;2022-12-05T18:01:31;18.73;;;13.98;;
64791;SDS011;51226;47.504;19.074;2022-12-05T18:04:34;16.37;;;12.75;;
64791;SDS011;51226;47.504;19.074;2022-12-05T18:07:38;17.05;;;12.37;;
64791;SDS011;51226;47.504;19.074;2022-12-05T18:10:44;15.68;;;12.60;;
64791;SDS011;51226;47.504;19.074;2022-12-05T18:13:49;18.50;;;12.85;;
64791;SDS011;51226;47.504;19.074;2022-12-05T18:19:55;15.70;;;12.07;;
64791;SDS011;51226;47.504;19.074;2022-12-05T18:22:58;16.10;;;11.77;;
64791;SDS011;51226;47.504;19.074;2022-12-05T18:26:01;15.60;;;11.12;;
64791;SDS011;51226;47.504;19.074;2022-12-05T18:32:07;18.42;;;13.07;;
64791;SDS011;51226;47.504;19.074;2022-12-05T18:35:09;18.00;;;12.37;;
64791;SDS011;51226;47.504;19.074;2022-12-05T18:38:14;16.73;;;12.70;;
64791;SDS011;51226;47.504;19.074;2022-12-05T18:41:17;20.12;;;12.90;;
64791;SDS011;51226;47.504;19.074;2022-12-05T18:44:21;19.02;;;12.80;;
64791;SDS011;51226;47.504;19.074;2022-12-05T18:47:24;17.27;;;12.90;;
64791;SDS011;51226;47.504;19.074;2022-12-05T18:50:29;16.52;;;13.07;;
64791;SDS011;51226;47.504;19.074;2022-12-05T18:53:32;15.05;;;11.52;;
64791;SDS011;51226;47.504;19.074;2022-12-05T18:56:35;17.42;;;11.77;;
64791;SDS011;51226;47.504;19.074;2022-12-05T18:59:41;14.52;;;11.45;;
64791;SDS011;51226;47.504;19.074;2022-12-05T19:02:46;16.00;;;11.15;;
64791;SDS011;51226;47.504;19.074;2022-12-05T19:05:50;14.23;;;11.32;;
64791;SDS011;51226;47.504;19.074;2022-12-05T19:08:53;15.23;;;10.98;;
64791;SDS011;51226;47.504;19.074;2022-12-05T19:11:58;14.02;;;11.38;;
64791;SDS011;51226;47.504;19.074;2022-12-05T19:15:02;14.90;;;11.30;;
64791;SDS011;51226;47.504;19.074;2022-12-05T19:18:05;14.00;;;11.25;;
64791;SDS011;51226;47.504;19.074;2022-12-05T19:21:08;16.12;;;11.10;;
64791;SDS011;51226;47.504;19.074;2022-12-05T19:24:12;15.13;;;10.82;;
64791;SDS011;51226;47.504;19.074;2022-12-05T19:27:16;13.80;;;11.90;;
64791;SDS011;51226;47.504;19.074;2022-12-05T19:30:19;14.25;;;9.85;;
64791;SDS011;51226;47.504;19.074;2022-12-05T19:33:22;15.40;;;11.15;;
64791;SDS011;51226;47.504;19.074;2022-12-05T19:36:26;14.43;;;10.00;;
64791;SDS011;51226;47.504;19.074;2022-12-05T19:39:31;15.43;;;11.52;;
64791;SDS011;51226;47.504;19.074;2022-12-05T19:42:35;14.35;;;11.60;;
64791;SDS011;51226;47.504;19.074;2022-12-05T19:45:38;16.52;;;11.77;;
64791;SDS011;51226;47.504;19.074;2022-12-05T19:48:41;18.33;;;11.98;;
64791;SDS011;51226;47.504;19.074;2022-12-05T19:51:44;17.02;;;12.37;;
64791;SDS011;51226;47.504;19.074;2022-12-05T19:57:50;14.77;;;10.93;;
64791;SDS011;51226;47.504;19.074;2022-12-05T20:00:53;16.92;;;12.30;;
64791;SDS011;51226;47.504;19.074;2022-12-05T20:03:58;17.40;;;12.88;;
64791;SDS011;51226;47.504;19.074;2022-12-05T20:07:02;21.50;;;14.40;;
64791;SDS011;51226;47.504;19.074;2022-12-05T20:10:05;19.50;;;13.65;;
64791;SDS011;51226;47.504;19.074;2022-12-05T20:13:08;18.35;;;14.10;;
64791;SDS011;51226;47.504;19.074;2022-12-05T20:16:31;21.55;;;15.50;;
64791;SDS011;51226;47.504;19.074;2022-12-05T20:19:35;21.67;;;15.25;;
64791;SDS011;51226;47.504;19.074;2022-12-05T20:22:38;20.83;;;15.70;;
64791;SDS011;51226;47.504;19.074;2022-12-05T20:25:40;23.47;;;16.73;;
64791;SDS011;51226;47.504;19.074;2022-12-05T20:31:48;26.70;;;17.58;;
64791;SDS011;51226;47.504;19.074;2022-12-05T20:34:53;24.30;;;17.15;;
64791;SDS011;51226;47.504;19.074;2022-12-05T20:37:56;25.37;;;18.02;;
64791;SDS011;51226;47.504;19.074;2022-12-05T20:41:00;23.60;;;16.80;;
64791;SDS011;51226;47.504;19.074;2022-12-05T20:44:08;25.52;;;17.83;;
64791;SDS011;51226;47.504;19.074;2022-12-05T20:47:14;27.60;;;18.73;;
64791;SDS011;51226;47.504;19.074;2022-12-05T20:50:17;31.17;;;21.23;;
64791;SDS011;51226;47.504;19.074;2022-12-05T20:53:20;32.60;;;22.60;;